createdAt,value
2022-10-17T00:00:59.385Z,12.56
2022-10-17T00:03:26.321Z,12.47
2022-10-17T00:05:53.378Z,12.52
2022-10-17T00:08:20.589Z,12.60
2022-10-17T00:11:01.373Z,12.72
2022-10-17T00:13:28.923Z,12.85
2022-10-17T00:15:56.233Z,12.80
2022-10-17T00:18:23.235Z,12.89
2022-10-17T00:20:50.600Z,13.01
2022-10-17T00:23:17.916Z,12.90
2022-10-17T00:25:44.941Z,12.86
2022-10-17T00:28:14.591Z,13.00
2022-10-17T00:30:41.622Z,12.79
2022-10-17T00:33:08.629Z,12.87
2022-10-17T00:35:35.564Z,12.92
2022-10-17T00:38:02.516Z,13.07
2022-10-17T00:40:29.480Z,13.14
2022-10-17T00:42:56.438Z,13.06
2022-10-17T00:45:28.972Z,12.93
2022-10-17T00:48:09.354Z,12.85
2022-10-17T00:50:42.763Z,12.89
2022-10-17T00:53:10.674Z,12.95
2022-10-17T00:55:49.327Z,13.07
2022-10-17T00:58:16.726Z,13.06
2022-10-17T01:00:44.690Z,13.18
2022-10-17T01:03:11.686Z,13.05
2022-10-17T01:05:39.778Z,13.13
2022-10-17T01:08:07.528Z,13.19
2022-10-17T01:11:25.033Z,13.06
2022-10-17T01:14:41.704Z,13.05
2022-10-17T01:17:55.470Z,12.91
2022-10-17T01:20:35.627Z,12.88
2022-10-17T01:23:59.794Z,12.85
2022-10-17T01:27:13.048Z,12.90
2022-10-17T01:30:22.411Z,13.08
2022-10-17T01:33:06.368Z,13.02
2022-10-17T01:35:51.201Z,13.04
2022-10-17T01:38:30.777Z,13.07
2022-10-17T01:41:39.786Z,12.94
2022-10-17T01:45:09.737Z,12.92
2022-10-17T01:47:38.023Z,12.88
2022-10-17T01:50:16.939Z,12.89
2022-10-17T01:52:53.525Z,12.92
2022-10-17T01:55:32.817Z,13.01
2022-10-17T01:58:10.702Z,13.10
2022-10-17T02:00:42.497Z,13.22
2022-10-17T02:03:15.695Z,13.22
2022-10-17T02:05:43.906Z,12.92
2022-10-17T02:08:14.508Z,12.73
2022-10-17T02:11:01.596Z,12.76
2022-10-17T02:13:43.294Z,12.84
2022-10-17T02:16:59.478Z,12.87
2022-10-17T02:20:02.146Z,12.98
2022-10-17T02:22:56.562Z,12.90
2022-10-17T02:25:57.063Z,12.76
2022-10-17T02:29:15.019Z,12.63
2022-10-17T02:32:06.817Z,12.65
2022-10-17T02:34:48.175Z,12.62
2022-10-17T02:37:23.077Z,12.44
2022-10-17T02:39:51.115Z,12.45
2022-10-17T02:42:19.728Z,12.46
2022-10-17T02:44:47.834Z,12.59
2022-10-17T02:47:39.819Z,12.67
2022-10-17T02:50:07.514Z,12.55
2022-10-17T02:52:35.479Z,12.68
2022-10-17T02:55:30.702Z,12.83
2022-10-17T02:58:06.831Z,13.04
2022-10-17T03:00:34.571Z,13.16
2022-10-17T03:03:01.474Z,13.26
2022-10-17T03:05:29.822Z,13.24
2022-10-17T03:07:57.439Z,13.17
2022-10-17T03:10:24.363Z,13.32
2022-10-17T03:12:51.272Z,13.36
2022-10-17T03:15:18.187Z,13.56
2022-10-17T03:20:17.141Z,13.54
2022-10-17T03:22:44.264Z,13.65
2022-10-17T03:25:11.160Z,13.60
2022-10-17T03:27:38.124Z,13.79
2022-10-17T03:30:06.090Z,13.83
2022-10-17T03:32:36.097Z,13.74
2022-10-17T03:35:03.950Z,13.93
2022-10-17T03:37:31.260Z,13.95
2022-10-17T03:39:58.328Z,14.02
2022-10-17T03:42:25.428Z,13.87
2022-10-17T03:44:52.358Z,13.70
2022-10-17T03:47:19.298Z,13.61
2022-10-17T03:49:46.274Z,13.79
2022-10-17T03:52:13.922Z,13.89
2022-10-17T03:54:40.956Z,13.89
2022-10-17T03:57:07.934Z,13.82
2022-10-17T03:59:34.861Z,13.85
2022-10-17T04:02:01.789Z,13.91
2022-10-17T04:04:28.755Z,14.08
2022-10-17T04:06:55.670Z,14.15
2022-10-17T04:09:22.617Z,14.09
2022-10-17T04:11:49.928Z,14.06
2022-10-17T04:14:16.868Z,13.86
2022-10-17T04:16:43.886Z,13.99
2022-10-17T04:19:13.525Z,13.94
2022-10-17T04:21:40.754Z,13.91
2022-10-17T04:24:11.733Z,13.96
2022-10-17T04:26:39.291Z,13.91
2022-10-17T04:29:08.485Z,13.88
2022-10-17T04:31:39.046Z,13.89
2022-10-17T04:34:05.938Z,13.93
2022-10-17T04:36:33.196Z,13.85
2022-10-17T04:39:03.439Z,13.86
2022-10-17T04:41:30.500Z,13.89
2022-10-17T04:43:57.635Z,13.89
2022-10-17T04:46:24.559Z,13.88
2022-10-17T04:48:51.453Z,13.76
2022-10-17T04:51:21.851Z,13.81
2022-10-17T04:53:51.472Z,13.69
2022-10-17T04:56:24.433Z,13.39
2022-10-17T04:58:52.106Z,13.38
2022-10-17T05:01:22.903Z,13.33
2022-10-17T05:03:50.610Z,13.24
2022-10-17T05:06:22.547Z,13.26
2022-10-17T05:08:52.416Z,13.23
2022-10-17T05:11:29.878Z,13.24
2022-10-17T05:14:01.076Z,13.35
2022-10-17T05:16:30.212Z,13.46
2022-10-17T05:18:58.778Z,13.36
2022-10-17T05:21:29.230Z,13.39
2022-10-17T05:23:56.816Z,13.46
2022-10-17T05:26:24.435Z,13.51
2022-10-17T05:28:52.433Z,13.32
2022-10-17T05:31:19.601Z,13.32
2022-10-17T05:33:46.822Z,13.49
2022-10-17T05:36:13.925Z,13.47
2022-10-17T05:38:40.891Z,13.39
2022-10-17T05:41:07.853Z,13.31
2022-10-17T05:43:36.473Z,13.23
2022-10-17T05:46:06.149Z,13.31
2022-10-17T05:48:34.407Z,13.18
2022-10-17T05:51:09.664Z,12.92
2022-10-17T05:53:44.284Z,13.30
2022-10-17T05:56:15.152Z,13.45
2022-10-17T05:58:50.318Z,13.46
2022-10-17T06:01:20.261Z,13.53
2022-10-17T06:03:47.317Z,13.39
2022-10-17T06:06:15.653Z,13.67
2022-10-17T06:08:43.395Z,13.70
2022-10-17T06:11:12.174Z,13.79
2022-10-17T06:13:39.889Z,13.59
2022-10-17T06:16:07.486Z,13.77
2022-10-17T06:18:37.071Z,13.89
2022-10-17T06:21:20.898Z,14.04
2022-10-17T06:23:48.049Z,13.82
2022-10-17T06:26:15.221Z,14.07
2022-10-17T06:28:43.348Z,14.17
2022-10-17T06:31:17.210Z,14.33
2022-10-17T06:33:44.295Z,14.32
2022-10-17T06:36:14.380Z,14.41
2022-10-17T06:38:41.726Z,14.31
2022-10-17T06:41:15.925Z,13.89
2022-10-17T06:43:47.958Z,14.41
2022-10-17T06:46:18.048Z,14.34
2022-10-17T06:48:45.331Z,14.37
2022-10-17T06:51:12.801Z,14.47
2022-10-17T06:53:40.815Z,14.46
2022-10-17T06:56:10.152Z,14.39
2022-10-17T06:58:39.868Z,14.63
2022-10-17T07:01:13.169Z,14.73
2022-10-17T07:03:41.270Z,14.94
2022-10-17T07:06:10.736Z,15.02
2022-10-17T07:08:38.183Z,14.67
2022-10-17T07:11:21.939Z,14.93
2022-10-17T07:13:52.509Z,15.12
2022-10-17T07:16:21.118Z,15.18
2022-10-17T07:18:51.034Z,15.35
2022-10-17T07:21:18.665Z,15.51
2022-10-17T07:23:45.998Z,15.65
2022-10-17T07:26:18.472Z,15.75
2022-10-17T07:28:51.464Z,15.70
2022-10-17T07:31:20.641Z,15.86
2022-10-17T07:33:48.308Z,15.76
2022-10-17T07:36:16.188Z,15.89
2022-10-17T07:38:43.179Z,15.94
2022-10-17T07:41:16.546Z,15.88
2022-10-17T07:43:46.374Z,15.95
2022-10-17T07:46:13.363Z,16.03
2022-10-17T07:48:40.656Z,16.21
2022-10-17T07:51:09.687Z,16.19
2022-10-17T07:53:39.826Z,16.25
2022-10-17T07:56:09.492Z,16.37
2022-10-17T07:58:37.958Z,16.22
2022-10-17T08:01:14.737Z,16.56
2022-10-17T08:03:44.514Z,16.53
2022-10-17T08:06:11.729Z,16.72
2022-10-17T08:08:38.685Z,16.87
2022-10-17T08:11:10.695Z,16.82
2022-10-17T08:13:38.444Z,16.96
2022-10-17T08:16:10.062Z,17.04
2022-10-17T08:18:40.113Z,17.18
2022-10-17T08:21:10.433Z,17.34
2022-10-17T08:23:37.759Z,17.59
2022-10-17T08:26:10.407Z,17.64
2022-10-17T08:28:40.389Z,17.61
2022-10-17T08:31:14.507Z,17.93
2022-10-17T08:33:42.696Z,18.08
2022-10-17T08:36:10.717Z,17.98
2022-10-17T08:38:43.163Z,17.99
2022-10-17T08:41:59.580Z,18.04
2022-10-17T08:45:03.076Z,17.95
2022-10-17T08:47:39.765Z,18.04
2022-10-17T08:50:36.081Z,18.31
2022-10-17T08:53:27.846Z,18.54
2022-10-17T08:55:55.616Z,18.77
2022-10-17T08:58:35.276Z,18.71
2022-10-17T09:01:17.419Z,19.06
2022-10-17T09:04:35.205Z,19.04
2022-10-17T09:07:16.342Z,19.20
2022-10-17T09:10:23.090Z,19.29
2022-10-17T09:13:48.914Z,19.34
2022-10-17T09:16:58.178Z,19.40
2022-10-17T09:19:41.461Z,19.66
2022-10-17T09:22:27.641Z,19.77
2022-10-17T09:25:03.291Z,19.86
2022-10-17T09:27:51.678Z,20.19
2022-10-17T09:30:44.561Z,20.22
2022-10-17T09:36:24.425Z,20.53
2022-10-17T09:39:16.831Z,20.46
2022-10-17T09:41:53.557Z,20.78
2022-10-17T09:44:35.032Z,20.92
2022-10-17T09:47:31.189Z,20.99
2022-10-17T09:49:58.560Z,20.85
2022-10-17T09:52:36.450Z,20.96
2022-10-17T09:55:21.322Z,20.82
2022-10-17T09:58:04.821Z,21.06
2022-10-17T10:00:45.980Z,21.18
2022-10-17T10:03:24.189Z,21.37
2022-10-17T10:06:18.654Z,21.21
2022-10-17T10:08:55.402Z,21.26
2022-10-17T10:11:55.425Z,21.62
2022-10-17T10:14:34.759Z,21.51
2022-10-17T10:17:06.881Z,22.00
2022-10-17T10:19:39.186Z,21.64
2022-10-17T10:22:26.439Z,21.81
2022-10-17T10:25:17.941Z,21.90
2022-10-17T10:27:46.504Z,21.84
2022-10-17T10:30:29.094Z,21.88
2022-10-17T10:33:00.249Z,22.12
2022-10-17T10:35:37.013Z,22.23
2022-10-17T10:38:14.746Z,22.38
2022-10-17T10:40:54.370Z,22.59
2022-10-17T10:43:43.746Z,22.79
2022-10-17T10:46:28.600Z,22.68
2022-10-17T10:49:03.185Z,22.97
2022-10-17T10:51:42.856Z,23.11
2022-10-17T10:54:55.078Z,23.33
2022-10-17T10:57:29.171Z,23.50
2022-10-17T11:00:21.056Z,23.60
2022-10-17T11:03:19.334Z,23.53
2022-10-17T11:05:54.698Z,23.78
2022-10-17T11:08:40.358Z,24.18
2022-10-17T11:11:32.245Z,24.24
2022-10-17T11:14:30.406Z,24.18
2022-10-17T11:17:34.989Z,23.81
2022-10-17T11:20:16.389Z,24.43
2022-10-17T11:22:57.528Z,24.12
2022-10-17T11:25:40.775Z,24.30
2022-10-17T11:28:24.811Z,24.46
2022-10-17T11:31:13.468Z,24.25
2022-10-17T11:34:19.326Z,24.15
2022-10-17T11:36:52.805Z,24.50
2022-10-17T11:40:08.291Z,24.66
2022-10-17T11:42:57.664Z,24.45
2022-10-17T11:45:33.591Z,24.52
2022-10-17T11:48:12.525Z,24.40
2022-10-17T11:53:54.661Z,24.97
2022-10-17T11:56:56.059Z,25.22
2022-10-17T11:59:52.588Z,24.89
2022-10-17T12:03:32.300Z,24.76
2022-10-17T12:06:31.532Z,24.89
2022-10-17T12:09:38.368Z,25.15
2022-10-17T12:12:05.739Z,25.12
2022-10-17T12:14:46.699Z,25.53
2022-10-17T12:17:45.785Z,25.84
2022-10-17T12:20:24.222Z,25.59
2022-10-17T12:23:10.683Z,25.55
2022-10-17T12:26:06.780Z,25.62
2022-10-17T12:28:48.182Z,25.60
2022-10-17T12:31:32.443Z,25.80
2022-10-17T12:34:05.422Z,25.45
2022-10-17T12:36:32.249Z,26.10
2022-10-17T12:39:02.245Z,26.00
2022-10-17T12:41:38.430Z,26.10
2022-10-17T12:44:21.236Z,26.02
2022-10-17T12:47:07.921Z,26.33
2022-10-17T12:49:55.829Z,26.40
2022-10-17T12:52:29.647Z,26.52
2022-10-17T12:55:13.932Z,26.30
2022-10-17T12:58:08.114Z,26.16
2022-10-17T13:01:22.689Z,25.80
2022-10-17T13:03:48.841Z,25.94
2022-10-17T13:06:30.956Z,25.89
2022-10-17T13:09:09.122Z,26.04
2022-10-17T13:11:39.360Z,25.73
2022-10-17T13:14:15.132Z,26.18
2022-10-17T13:16:52.546Z,25.94
2022-10-17T13:19:28.775Z,25.69
2022-10-17T13:22:06.878Z,25.82
2022-10-17T13:24:39.139Z,25.98
2022-10-17T13:27:33.572Z,25.85
2022-10-17T13:30:32.169Z,25.60
2022-10-17T13:33:01.528Z,25.34
2022-10-17T13:38:32.680Z,25.90
2022-10-17T13:41:30.067Z,25.90
2022-10-17T13:43:51.255Z,26.18
2022-10-17T13:46:37.961Z,26.22
2022-10-17T13:49:22.200Z,26.04
2022-10-17T13:51:54.430Z,26.10
2022-10-17T13:54:41.936Z,26.00
2022-10-17T13:57:29.084Z,25.96
2022-10-17T14:00:11.413Z,26.26
2022-10-17T14:02:40.972Z,26.15
2022-10-17T14:05:18.763Z,25.87
2022-10-17T14:08:14.503Z,26.02
2022-10-17T14:10:44.686Z,25.91
2022-10-17T14:13:30.164Z,25.50
2022-10-17T14:16:03.805Z,25.51
2022-10-17T14:18:37.086Z,25.43
2022-10-17T14:24:28.258Z,25.18
2022-10-17T14:26:59.551Z,25.48
2022-10-17T14:29:32.220Z,25.41
2022-10-17T14:32:15.521Z,25.57
2022-10-17T14:34:42.673Z,25.47
2022-10-17T14:37:28.148Z,25.44
2022-10-17T14:39:55.685Z,25.18
2022-10-17T14:42:23.874Z,25.25
2022-10-17T14:44:54.381Z,25.33
2022-10-17T14:50:13.161Z,25.03
2022-10-17T14:52:40.770Z,24.87
2022-10-17T14:55:31.270Z,24.64
2022-10-17T14:57:58.657Z,24.43
2022-10-17T15:00:26.607Z,24.33
2022-10-17T15:02:56.116Z,24.27
2022-10-17T15:05:23.428Z,24.01
2022-10-17T15:07:50.880Z,24.01
2022-10-17T15:10:33.628Z,23.80
2022-10-17T15:15:51.870Z,23.79
2022-10-17T15:18:19.354Z,23.74
2022-10-17T15:20:46.438Z,23.68
2022-10-17T15:23:13.388Z,23.66
2022-10-17T15:25:40.412Z,23.64
2022-10-17T15:28:07.938Z,23.64
2022-10-17T15:30:36.989Z,23.47
2022-10-17T15:33:04.131Z,23.43
2022-10-17T15:35:31.415Z,23.37
2022-10-17T15:37:58.632Z,23.32
2022-10-17T15:40:29.376Z,23.26
2022-10-17T15:42:57.494Z,23.23
2022-10-17T15:45:25.385Z,23.14
2022-10-17T15:48:05.804Z,22.99
2022-10-17T15:50:32.809Z,22.95
2022-10-17T15:53:00.256Z,22.91
2022-10-17T15:55:27.827Z,22.85
2022-10-17T15:57:54.826Z,22.75
2022-10-17T16:00:24.325Z,22.70
2022-10-17T16:02:51.676Z,22.66
2022-10-17T16:05:26.407Z,22.57
2022-10-17T16:07:54.688Z,22.46
2022-10-17T16:10:22.772Z,22.34
2022-10-17T16:12:50.581Z,22.30
2022-10-17T16:15:27.278Z,22.26
2022-10-17T16:17:57.282Z,22.21
2022-10-17T16:20:25.628Z,22.16
2022-10-17T16:22:59.587Z,22.06
2022-10-17T16:25:29.854Z,21.97
2022-10-17T16:27:59.974Z,21.89
2022-10-17T16:30:31.815Z,21.83
2022-10-17T16:32:58.899Z,21.72
2022-10-17T16:35:33.318Z,21.45
2022-10-17T16:38:05.718Z,21.39
2022-10-17T16:40:32.833Z,21.31
2022-10-17T16:43:00.027Z,21.22
2022-10-17T16:45:27.254Z,21.26
2022-10-17T16:47:54.947Z,21.17
2022-10-17T16:50:22.249Z,21.22
2022-10-17T16:52:49.204Z,21.26
2022-10-17T16:55:18.930Z,21.27
2022-10-17T16:57:46.182Z,21.27
2022-10-17T17:00:14.116Z,21.16
2022-10-17T17:02:41.050Z,21.07
2022-10-17T17:05:08.602Z,20.97
2022-10-17T17:07:35.588Z,20.84
2022-10-17T17:10:02.553Z,20.44
2022-10-17T17:12:31.597Z,19.85
2022-10-17T17:14:58.552Z,19.61
2022-10-17T17:17:44.247Z,19.51
2022-10-17T17:20:12.352Z,19.26
2022-10-17T17:22:39.293Z,19.47
2022-10-17T17:25:06.682Z,19.53
2022-10-17T17:27:33.661Z,19.25
2022-10-17T17:30:00.607Z,19.25
2022-10-17T17:32:27.607Z,19.14
2022-10-17T17:34:54.577Z,19.12
2022-10-17T17:37:21.493Z,19.13
2022-10-17T17:39:48.457Z,19.26
2022-10-17T17:42:15.379Z,19.17
2022-10-17T17:44:42.353Z,19.06
2022-10-17T17:47:09.327Z,19.14
2022-10-17T17:49:36.295Z,19.26
2022-10-17T17:54:38.537Z,19.43
2022-10-17T17:57:07.904Z,19.38
2022-10-17T17:59:35.054Z,19.17
2022-10-17T18:02:02.794Z,19.11
2022-10-17T18:04:29.807Z,19.05
2022-10-17T18:06:56.913Z,18.98
2022-10-17T18:09:23.956Z,18.93
2022-10-17T18:11:50.951Z,18.91
2022-10-17T18:14:19.115Z,18.92
2022-10-17T18:16:46.080Z,18.75
2022-10-17T18:19:13.167Z,18.63
2022-10-17T18:21:40.118Z,18.51
2022-10-17T18:24:07.819Z,18.30
2022-10-17T18:26:35.600Z,18.19
2022-10-17T18:29:03.457Z,18.54
2022-10-17T18:31:35.599Z,18.56
2022-10-17T18:34:05.291Z,18.65
2022-10-17T18:36:34.677Z,18.91
2022-10-17T18:39:02.400Z,18.98
2022-10-17T18:41:29.922Z,19.09
2022-10-17T18:43:57.797Z,18.98
2022-10-17T18:46:35.519Z,18.71
2022-10-17T18:49:03.457Z,18.67
2022-10-17T18:51:30.363Z,18.74
2022-10-17T18:53:58.743Z,18.72
2022-10-17T18:56:26.420Z,18.64
2022-10-17T18:58:53.378Z,18.60
2022-10-17T19:01:24.974Z,18.46
2022-10-17T19:03:57.248Z,18.27
2022-10-17T19:06:32.152Z,18.28
2022-10-17T19:09:02.166Z,18.25
2022-10-17T19:11:31.722Z,18.18
2022-10-17T19:14:03.672Z,18.16
2022-10-17T19:16:36.027Z,18.14
2022-10-17T19:19:24.298Z,18.08
2022-10-17T19:21:52.672Z,17.99
2022-10-17T19:24:27.419Z,17.79
2022-10-17T19:26:59.363Z,17.45
2022-10-17T19:29:31.066Z,17.28
2022-10-17T19:31:58.840Z,17.10
2022-10-17T19:34:27.625Z,17.16
2022-10-17T19:36:55.709Z,17.25
2022-10-17T19:39:24.745Z,17.43
2022-10-17T19:41:51.694Z,17.36
2022-10-17T19:44:18.924Z,17.25
2022-10-17T19:46:48.850Z,17.03
2022-10-17T19:49:17.055Z,17.14
2022-10-17T19:51:44.374Z,17.34
2022-10-17T19:54:12.293Z,17.10
2022-10-17T19:56:40.256Z,17.18
2022-10-17T19:59:08.337Z,17.36
2022-10-17T20:01:40.998Z,17.30
2022-10-17T20:04:10.612Z,17.22
2022-10-17T20:06:38.555Z,17.36
2022-10-17T20:09:08.012Z,17.52
2022-10-17T20:11:36.882Z,17.59
2022-10-17T20:14:03.821Z,17.68
2022-10-17T20:16:34.558Z,17.68
2022-10-17T20:19:13.058Z,17.61
2022-10-17T20:21:40.360Z,17.61
2022-10-17T20:24:12.304Z,17.55
2022-10-17T20:26:40.157Z,17.58
2022-10-17T20:29:20.913Z,17.57
2022-10-17T20:31:48.788Z,17.61
2022-10-17T20:34:18.391Z,17.49
2022-10-17T20:36:46.490Z,17.44
2022-10-17T20:39:20.966Z,17.22
2022-10-17T20:41:48.620Z,17.23
2022-10-17T20:44:15.897Z,17.21
2022-10-17T20:47:00.626Z,17.09
2022-10-17T20:49:27.981Z,16.93
2022-10-17T20:51:54.873Z,16.61
2022-10-17T20:54:22.327Z,16.81
2022-10-17T20:56:49.282Z,16.67
2022-10-17T20:59:18.018Z,16.49
2022-10-17T21:01:46.009Z,16.35
2022-10-17T21:07:01.205Z,16.60
2022-10-17T21:09:28.278Z,16.51
2022-10-17T21:11:56.041Z,16.54
2022-10-17T21:14:25.155Z,16.31
2022-10-17T21:16:52.261Z,16.18
2022-10-17T21:19:19.434Z,15.88
2022-10-17T21:21:47.012Z,15.62
2022-10-17T21:24:17.960Z,15.71
2022-10-17T21:26:47.754Z,15.98
2022-10-17T21:29:15.460Z,16.11
2022-10-17T21:31:44.608Z,16.24
2022-10-17T21:34:18.387Z,16.06
2022-10-17T21:36:45.544Z,15.92
2022-10-17T21:39:14.966Z,15.97
2022-10-17T21:41:43.525Z,16.19
2022-10-17T21:44:20.577Z,16.18
2022-10-17T21:46:48.261Z,16.17
2022-10-17T21:49:20.640Z,16.27
2022-10-17T21:51:49.031Z,16.28
2022-10-17T21:54:17.732Z,16.28
2022-10-17T21:56:45.176Z,16.13
2022-10-17T21:59:12.407Z,16.18
2022-10-17T22:01:43.905Z,16.16
2022-10-17T22:04:16.032Z,16.06
2022-10-17T22:06:50.906Z,16.10
2022-10-17T22:09:25.318Z,15.97
2022-10-17T22:11:56.519Z,16.01
2022-10-17T22:14:27.996Z,16.10
2022-10-17T22:16:55.462Z,16.11
2022-10-17T22:19:26.745Z,16.00
2022-10-17T22:21:54.521Z,16.07
2022-10-17T22:24:23.364Z,16.10
2022-10-17T22:26:50.823Z,16.18
2022-10-17T22:29:17.810Z,16.04
2022-10-17T22:31:45.005Z,16.11
2022-10-17T22:34:15.725Z,15.79
2022-10-17T22:36:43.577Z,15.79
2022-10-17T22:39:11.304Z,15.47
2022-10-17T22:41:38.447Z,15.45
2022-10-17T22:44:06.310Z,15.70
2022-10-17T22:46:33.311Z,15.96
2022-10-17T22:49:00.325Z,16.11
2022-10-17T22:51:27.586Z,16.26
2022-10-17T22:53:54.526Z,16.18
2022-10-17T22:56:22.775Z,16.34
2022-10-17T22:58:50.694Z,16.13
2022-10-17T23:01:22.882Z,16.01
2022-10-17T23:03:51.493Z,16.17
2022-10-17T23:06:20.029Z,16.18
2022-10-17T23:08:47.070Z,16.20
2022-10-17T23:11:14.074Z,16.09
2022-10-17T23:13:41.147Z,16.09
2022-10-17T23:16:08.673Z,16.27
2022-10-17T23:18:37.626Z,16.03
2022-10-17T23:21:05.380Z,16.09
2022-10-17T23:23:32.461Z,16.12
2022-10-17T23:26:11.882Z,16.28
2022-10-17T23:28:40.292Z,16.46
2022-10-17T23:31:17.821Z,16.53
2022-10-17T23:33:49.761Z,16.63
2022-10-17T23:36:20.684Z,16.68
2022-10-17T23:38:48.994Z,16.78
2022-10-17T23:41:17.087Z,16.81
2022-10-17T23:43:46.975Z,16.91
2022-10-17T23:46:14.458Z,16.65
2022-10-17T23:48:41.919Z,16.87
2022-10-17T23:51:10.692Z,16.79
2022-10-17T23:53:39.168Z,16.87
2022-10-17T23:56:07.758Z,16.93
2022-10-17T23:58:37.711Z,16.65
